createdAt,value
2022-11-22T00:02:25.526Z,68.80
2022-11-22T00:04:53.347Z,71.90
2022-11-22T00:07:21.252Z,67.20
2022-11-22T00:09:49.040Z,64.70
2022-11-22T00:12:16.780Z,66.40
2022-11-22T00:14:44.625Z,62.80
2022-11-22T00:17:12.347Z,64.30
2022-11-22T00:19:40.237Z,67.40
2022-11-22T00:22:08.695Z,67.20
2022-11-22T00:24:36.421Z,70.80
2022-11-22T00:27:11.370Z,65.50
2022-11-22T00:29:39.075Z,69.20
2022-11-22T00:32:06.803Z,64.00
2022-11-22T00:34:35.201Z,62.60
2022-11-22T00:37:03.113Z,65.60
2022-11-22T00:39:31.277Z,63.40
2022-11-22T00:41:59.599Z,77.60
2022-11-22T00:44:27.170Z,83.60
2022-11-22T00:46:55.059Z,81.20
2022-11-22T00:49:22.839Z,86.30
2022-11-22T00:51:50.799Z,76.20
2022-11-22T00:54:18.452Z,90.70
2022-11-22T00:56:46.272Z,86.60
2022-11-22T00:59:14.053Z,108.80
2022-11-22T01:01:42.006Z,95.30
2022-11-22T01:04:09.821Z,89.60
2022-11-22T01:06:37.591Z,81.20
2022-11-22T01:09:05.506Z,93.90
2022-11-22T01:11:33.248Z,86.10
2022-11-22T01:14:00.997Z,70.40
2022-11-22T01:16:28.627Z,73.50
2022-11-22T01:18:56.437Z,77.80
2022-11-22T01:21:24.221Z,82.40
2022-11-22T01:23:51.923Z,86.10
2022-11-22T01:26:19.779Z,77.70
2022-11-22T01:28:54.093Z,80.90
2022-11-22T01:31:33.891Z,74.90
2022-11-22T01:34:05.554Z,65.80
2022-11-22T01:36:33.392Z,68.50
2022-11-22T01:39:01.051Z,64.00
2022-11-22T01:41:28.809Z,68.60
2022-11-22T01:43:56.518Z,70.90
2022-11-22T01:46:33.642Z,68.40
2022-11-22T01:49:06.392Z,72.50
2022-11-22T01:51:36.076Z,71.90
2022-11-22T01:54:06.174Z,74.10
2022-11-22T01:56:35.087Z,74.10
2022-11-22T01:59:05.278Z,73.70
2022-11-22T02:01:33.407Z,73.40
2022-11-22T02:04:02.826Z,71.20
2022-11-22T02:06:46.481Z,70.30
2022-11-22T02:09:14.702Z,70.90
2022-11-22T02:11:46.028Z,70.30
2022-11-22T02:14:14.995Z,70.60
2022-11-22T02:16:43.780Z,70.00
2022-11-22T02:19:18.421Z,77.90
2022-11-22T02:21:49.659Z,73.60
2022-11-22T02:24:20.725Z,73.00
2022-11-22T02:26:48.529Z,76.30
2022-11-22T02:29:23.033Z,76.20
2022-11-22T02:31:50.793Z,73.80
2022-11-22T02:34:18.499Z,77.10
2022-11-22T02:36:48.720Z,75.10
2022-11-22T02:39:19.343Z,72.10
2022-11-22T02:41:48.012Z,76.90
2022-11-22T02:44:16.498Z,73.70
2022-11-22T02:46:52.058Z,72.80
2022-11-22T02:49:26.701Z,77.50
2022-11-22T02:52:00.647Z,75.30
2022-11-22T02:54:32.287Z,74.60
2022-11-22T02:57:00.048Z,74.50
2022-11-22T02:59:28.171Z,77.00
2022-11-22T03:02:01.691Z,81.00
2022-11-22T03:04:30.992Z,81.50
2022-11-22T03:06:59.688Z,76.70
2022-11-22T03:09:28.212Z,77.00
2022-11-22T03:11:56.209Z,79.00
2022-11-22T03:14:24.053Z,73.90
2022-11-22T03:16:51.996Z,74.30
2022-11-22T03:19:26.022Z,78.10
2022-11-22T03:21:53.809Z,79.70
2022-11-22T03:24:21.510Z,77.70
2022-11-22T03:26:50.080Z,77.70
2022-11-22T03:29:18.134Z,78.10
2022-11-22T03:31:45.807Z,79.50
2022-11-22T03:34:14.239Z,84.20
2022-11-22T03:36:48.872Z,78.20
2022-11-22T03:39:16.559Z,76.30
2022-11-22T03:41:44.247Z,77.10
2022-11-22T03:44:12.001Z,70.80
2022-11-22T03:46:39.749Z,79.90
2022-11-22T03:49:07.493Z,68.90
2022-11-22T03:51:35.318Z,64.00
2022-11-22T03:54:03.252Z,74.00
2022-11-22T03:56:30.951Z,64.60
2022-11-22T03:58:58.783Z,61.30
2022-11-22T04:01:26.687Z,68.10
2022-11-22T04:03:54.462Z,60.40
2022-11-22T04:06:22.182Z,61.40
2022-11-22T04:08:50.200Z,57.40
2022-11-22T04:11:17.992Z,55.50
2022-11-22T04:14:04.747Z,56.70
2022-11-22T04:16:32.633Z,59.30
2022-11-22T04:19:00.305Z,58.50
2022-11-22T04:21:34.269Z,58.20
2022-11-22T04:26:49.253Z,57.30
2022-11-22T04:29:17.481Z,65.60
2022-11-22T04:32:04.399Z,63.60
2022-11-22T04:34:32.373Z,60.00
2022-11-22T04:37:00.565Z,63.10
2022-11-22T04:39:29.039Z,62.30
2022-11-22T04:42:16.067Z,69.50
2022-11-22T04:44:44.520Z,60.70
2022-11-22T04:47:34.138Z,54.90
2022-11-22T04:50:06.465Z,53.30
2022-11-22T04:52:52.834Z,54.20
2022-11-22T04:55:20.996Z,52.50
2022-11-22T04:57:48.908Z,54.50
2022-11-22T05:00:16.961Z,53.70
2022-11-22T05:02:44.754Z,53.30
2022-11-22T05:05:12.580Z,52.80
2022-11-22T05:07:40.666Z,50.80
2022-11-22T05:10:09.099Z,53.70
2022-11-22T05:12:36.758Z,55.50
2022-11-22T05:15:04.977Z,49.40
2022-11-22T05:17:32.794Z,52.00
2022-11-22T05:20:00.931Z,47.80
2022-11-22T05:22:47.406Z,50.80
2022-11-22T05:25:15.148Z,52.20
2022-11-22T05:27:53.589Z,49.60
2022-11-22T05:30:21.298Z,50.80
2022-11-22T05:32:49.014Z,47.30
2022-11-22T05:35:16.805Z,48.70
2022-11-22T05:37:44.723Z,47.70
2022-11-22T05:40:12.971Z,52.40
2022-11-22T05:42:40.637Z,48.00
2022-11-22T05:45:08.694Z,49.90
2022-11-22T05:47:36.562Z,50.30
2022-11-22T05:50:04.926Z,48.70
2022-11-22T05:52:32.779Z,48.90
2022-11-22T05:55:00.836Z,54.90
2022-11-22T05:57:28.748Z,49.60
2022-11-22T05:59:56.674Z,51.00
2022-11-22T06:02:24.583Z,50.40
2022-11-22T06:04:52.342Z,48.70
2022-11-22T06:07:20.165Z,50.90
2022-11-22T06:09:48.034Z,53.40
2022-11-22T06:12:15.832Z,49.80
2022-11-22T06:14:44.901Z,49.70
2022-11-22T06:17:12.690Z,50.40
2022-11-22T06:19:40.423Z,47.70
2022-11-22T06:22:09.965Z,51.20
2022-11-22T06:24:37.751Z,51.20
2022-11-22T06:27:12.239Z,49.00
2022-11-22T06:29:39.949Z,61.90
2022-11-22T06:32:07.756Z,66.30
2022-11-22T06:34:35.531Z,54.50
2022-11-22T06:37:03.337Z,58.50
2022-11-22T06:39:31.424Z,68.00
2022-11-22T06:42:04.789Z,59.90
2022-11-22T06:44:32.395Z,52.50
2022-11-22T06:47:00.357Z,76.00
2022-11-22T06:49:28.306Z,65.00
2022-11-22T06:51:56.297Z,56.20
2022-11-22T06:54:23.938Z,49.00
2022-11-22T06:56:51.638Z,46.00
2022-11-22T06:59:19.568Z,51.50
2022-11-22T07:01:47.399Z,55.00
2022-11-22T07:04:19.268Z,55.60
2022-11-22T07:06:47.180Z,58.40
2022-11-22T07:09:14.929Z,73.20
2022-11-22T07:11:42.683Z,78.00
2022-11-22T07:14:11.031Z,63.70
2022-11-22T07:16:38.990Z,66.30
2022-11-22T07:19:07.721Z,55.80
2022-11-22T07:21:37.483Z,53.10
2022-11-22T07:24:06.027Z,62.50
2022-11-22T07:26:33.719Z,79.10
2022-11-22T07:29:01.379Z,94.10
2022-11-22T07:31:29.263Z,94.40
2022-11-22T07:34:00.146Z,90.50
2022-11-22T07:36:29.721Z,62.70
2022-11-22T07:38:57.807Z,75.70
2022-11-22T07:41:25.760Z,55.10
2022-11-22T07:43:54.259Z,53.00
2022-11-22T07:46:29.343Z,50.40
2022-11-22T07:48:57.739Z,43.80
2022-11-22T07:51:25.894Z,42.70
2022-11-22T07:53:54.606Z,43.90
2022-11-22T07:56:22.410Z,44.30
2022-11-22T07:58:50.181Z,40.20
2022-11-22T08:01:18.538Z,38.00
2022-11-22T08:03:46.388Z,36.80
2022-11-22T08:06:15.135Z,41.20
2022-11-22T08:08:43.271Z,38.30
2022-11-22T08:11:11.403Z,36.80
2022-11-22T08:13:39.516Z,43.80
2022-11-22T08:16:08.802Z,38.10
2022-11-22T08:18:37.330Z,34.10
2022-11-22T08:21:05.173Z,37.80
2022-11-22T08:23:32.986Z,36.90
2022-11-22T08:26:00.839Z,37.70
2022-11-22T08:28:28.703Z,36.50
2022-11-22T08:31:16.542Z,35.10
2022-11-22T08:33:44.309Z,42.80
2022-11-22T08:36:12.410Z,40.00
2022-11-22T08:38:40.180Z,39.00
2022-11-22T08:41:08.875Z,45.00
2022-11-22T08:43:37.312Z,39.20
2022-11-22T08:46:05.796Z,39.00
2022-11-22T08:48:34.531Z,36.10
2022-11-22T08:51:09.696Z,37.00
2022-11-22T08:53:39.166Z,43.50
2022-11-22T08:56:09.737Z,53.20
2022-11-22T08:58:37.916Z,43.40
2022-11-22T09:01:07.003Z,44.30
2022-11-22T09:03:35.561Z,44.90
2022-11-22T09:09:15.030Z,40.30
2022-11-22T09:11:40.970Z,36.30
2022-11-22T09:14:08.892Z,35.40
2022-11-22T09:16:36.787Z,37.30
2022-11-22T09:19:05.229Z,42.20
2022-11-22T09:21:33.040Z,41.30
2022-11-22T09:24:00.973Z,43.60
2022-11-22T09:26:29.251Z,45.00
2022-11-22T09:28:57.169Z,48.90
2022-11-22T09:31:25.024Z,49.50
2022-11-22T09:33:52.806Z,58.70
2022-11-22T09:36:21.963Z,38.40
2022-11-22T09:38:51.125Z,39.90
2022-11-22T09:41:42.408Z,39.90
2022-11-22T09:44:18.941Z,36.30
2022-11-22T09:49:14.373Z,39.40
2022-11-22T09:51:47.955Z,38.10
2022-11-22T09:54:18.779Z,40.50
2022-11-22T09:56:48.392Z,39.90
2022-11-22T09:59:21.856Z,42.80
2022-11-22T10:01:55.910Z,39.70
2022-11-22T10:04:35.410Z,55.80
2022-11-22T10:07:08.042Z,47.40
2022-11-22T10:09:42.879Z,50.60
2022-11-22T10:12:13.934Z,48.70
2022-11-22T10:14:47.872Z,52.90
2022-11-22T10:17:24.934Z,51.10
2022-11-22T10:19:59.053Z,52.40
2022-11-22T10:22:29.499Z,52.00
2022-11-22T10:25:17.938Z,50.40
2022-11-22T10:28:00.960Z,49.50
2022-11-22T10:30:32.996Z,49.80
2022-11-22T10:33:03.883Z,47.30
2022-11-22T10:35:34.906Z,47.60
2022-11-22T10:38:14.646Z,47.50
2022-11-22T10:40:48.555Z,52.20
2022-11-22T10:43:33.183Z,49.40
2022-11-22T10:46:10.907Z,50.00
2022-11-22T10:48:53.158Z,48.70
2022-11-22T10:51:27.439Z,48.30
2022-11-22T10:54:00.366Z,48.50
2022-11-22T10:56:57.494Z,53.60
2022-11-22T10:59:32.123Z,50.80
2022-11-22T11:02:00.275Z,51.10
2022-11-22T11:04:31.222Z,52.60
2022-11-22T11:07:15.621Z,53.10
2022-11-22T11:12:42.178Z,52.60
2022-11-22T11:15:16.414Z,59.40
2022-11-22T11:17:46.461Z,62.90
2022-11-22T11:20:19.897Z,60.50
2022-11-22T11:25:49.578Z,64.50
2022-11-22T11:28:18.658Z,59.70
2022-11-22T11:30:52.237Z,58.50
2022-11-22T11:33:23.826Z,59.80
2022-11-22T11:36:11.859Z,64.80
2022-11-22T11:38:42.638Z,64.90
2022-11-22T11:41:29.191Z,70.60
2022-11-22T11:44:04.440Z,77.30
2022-11-22T11:46:41.671Z,72.20
2022-11-22T11:49:16.891Z,75.70
2022-11-22T11:51:54.405Z,74.90
2022-11-22T11:54:43.001Z,64.10
2022-11-22T11:57:11.509Z,70.60
2022-11-22T11:59:39.504Z,59.30
2022-11-22T12:02:16.678Z,57.90
2022-11-22T12:04:54.901Z,60.00
2022-11-22T12:07:24.596Z,61.40
2022-11-22T12:09:58.932Z,66.10
2022-11-22T12:12:36.980Z,71.00
2022-11-22T12:15:16.291Z,59.70
2022-11-22T12:17:54.330Z,57.30
2022-11-22T12:20:25.439Z,57.30
2022-11-22T12:23:02.478Z,55.70
2022-11-22T12:25:36.190Z,56.10
2022-11-22T12:28:12.958Z,58.80
2022-11-22T12:30:42.866Z,57.60
2022-11-22T12:33:17.786Z,49.50
2022-11-22T12:35:46.308Z,64.10
2022-11-22T12:38:16.803Z,58.80
2022-11-22T12:40:47.547Z,49.80
2022-11-22T12:43:21.720Z,54.10
2022-11-22T12:48:20.507Z,54.40
2022-11-22T12:50:56.607Z,54.00
2022-11-22T12:53:50.941Z,55.50
2022-11-22T12:56:21.936Z,55.00
2022-11-22T12:58:59.421Z,53.10
2022-11-22T13:01:36.420Z,51.40
2022-11-22T13:04:19.678Z,51.00
2022-11-22T13:07:02.461Z,57.40
2022-11-22T13:09:33.912Z,58.40
2022-11-22T13:12:22.640Z,62.10
2022-11-22T13:14:55.154Z,62.50
2022-11-22T13:17:24.874Z,52.20
2022-11-22T13:19:55.136Z,60.80
2022-11-22T13:22:42.166Z,75.00
2022-11-22T13:25:29.026Z,56.80
2022-11-22T13:28:09.388Z,52.00
2022-11-22T13:33:23.593Z,68.10
2022-11-22T13:36:16.891Z,81.20
2022-11-22T13:38:55.294Z,72.00
2022-11-22T13:41:34.914Z,56.10
2022-11-22T13:44:22.359Z,55.80
2022-11-22T13:46:50.309Z,56.40
2022-11-22T13:49:37.447Z,58.20
2022-11-22T13:52:13.036Z,66.70
2022-11-22T13:54:43.113Z,49.80
2022-11-22T13:57:26.298Z,47.60
2022-11-22T14:00:12.628Z,60.30
2022-11-22T14:02:46.962Z,60.00
2022-11-22T14:05:21.450Z,60.60
2022-11-22T14:07:50.261Z,57.40
2022-11-22T14:10:26.924Z,58.40
2022-11-22T14:13:13.800Z,59.20
2022-11-22T14:15:48.103Z,54.00
2022-11-22T14:18:34.989Z,53.80
2022-11-22T14:21:08.513Z,56.00
2022-11-22T14:23:57.185Z,54.80
2022-11-22T14:26:32.824Z,57.20
2022-11-22T14:29:01.457Z,52.50
2022-11-22T14:31:29.201Z,51.40
2022-11-22T14:34:16.983Z,56.20
2022-11-22T14:36:45.640Z,54.70
2022-11-22T14:39:33.770Z,77.20
2022-11-22T14:42:02.206Z,60.20
2022-11-22T14:44:36.814Z,57.10
2022-11-22T14:47:07.589Z,55.80
2022-11-22T14:49:47.920Z,69.40
2022-11-22T14:52:23.361Z,87.20
2022-11-22T14:54:57.480Z,56.20
2022-11-22T14:57:26.958Z,78.60
2022-11-22T15:00:10.717Z,60.40
2022-11-22T15:02:54.169Z,60.80
2022-11-22T15:09:13.087Z,77.50
2022-11-22T15:09:13.538Z,72.70
2022-11-22T15:11:18.544Z,82.40
2022-11-22T15:14:02.686Z,67.60
2022-11-22T15:59:45.264Z,63.10
2022-11-22T16:02:15.079Z,65.20
2022-11-22T16:04:47.953Z,77.10
2022-11-22T16:07:24.005Z,62.80
2022-11-22T16:09:51.969Z,57.60
2022-11-22T16:12:26.938Z,50.20
2022-11-22T16:14:55.022Z,53.20
2022-11-22T16:17:58.001Z,65.70
2022-11-22T16:20:31.879Z,53.30
2022-11-22T16:23:09.085Z,50.60
2022-11-22T16:25:38.206Z,50.60
2022-11-22T16:28:18.241Z,54.50
2022-11-22T16:30:46.470Z,55.00
2022-11-22T16:33:21.214Z,52.10
2022-11-22T16:35:57.370Z,55.20
2022-11-22T16:38:25.622Z,54.60
2022-11-22T16:40:54.206Z,57.50
2022-11-22T16:43:23.050Z,50.10
2022-11-22T16:45:51.392Z,52.10
2022-11-22T16:48:35.593Z,50.20
2022-11-22T16:53:41.511Z,59.30
2022-11-22T16:56:14.166Z,49.70
2022-11-22T16:58:41.977Z,62.30
2022-11-22T17:01:17.872Z,69.80
2022-11-22T17:03:54.864Z,70.00
2022-11-22T17:06:35.623Z,62.90
2022-11-22T17:09:12.989Z,80.80
2022-11-22T17:11:50.953Z,65.20
2022-11-22T17:14:24.638Z,53.10
2022-11-22T17:16:57.768Z,61.90
2022-11-22T17:22:29.309Z,80.20
2022-11-22T17:25:14.892Z,70.40
2022-11-22T17:27:54.999Z,59.90
2022-11-22T17:30:31.731Z,64.70
2022-11-22T17:33:04.866Z,52.00
2022-11-22T17:35:38.781Z,61.20
2022-11-22T17:38:14.151Z,54.70
2022-11-22T17:40:48.686Z,54.70
2022-11-22T17:43:21.693Z,71.20
2022-11-22T17:45:54.392Z,60.80
2022-11-22T17:48:30.814Z,70.00
2022-11-22T17:51:11.066Z,57.50
2022-11-22T17:53:44.374Z,57.30
2022-11-22T17:56:42.177Z,63.80
2022-11-22T17:59:19.260Z,72.50
2022-11-22T18:01:58.771Z,56.50
2022-11-22T18:04:33.257Z,64.40
2022-11-22T18:07:06.279Z,86.40
2022-11-22T18:09:34.928Z,66.10
2022-11-22T18:12:02.753Z,63.10
2022-11-22T18:14:30.916Z,62.10
2022-11-22T18:17:00.451Z,54.30
2022-11-22T18:19:28.424Z,61.90
2022-11-22T18:21:56.414Z,74.90
2022-11-22T18:24:24.167Z,82.90
2022-11-22T18:26:52.046Z,78.30
2022-11-22T18:29:41.808Z,81.00
2022-11-22T18:32:07.786Z,77.40
2022-11-22T18:34:35.888Z,73.70
2022-11-22T18:37:04.852Z,69.20
2022-11-22T18:39:35.195Z,64.60
2022-11-22T18:42:24.495Z,53.50
2022-11-22T18:44:52.233Z,62.90
2022-11-22T18:47:20.504Z,58.10
2022-11-22T18:49:48.315Z,68.30
2022-11-22T18:52:17.883Z,59.90
2022-11-22T18:55:08.963Z,57.90
2022-11-22T18:57:36.763Z,55.50
2022-11-22T19:00:05.493Z,67.00
2022-11-22T19:02:33.327Z,54.20
2022-11-22T19:05:02.067Z,54.80
2022-11-22T19:07:30.091Z,79.20
2022-11-22T19:09:58.931Z,115.30
2022-11-22T19:12:27.132Z,186.60
2022-11-22T19:14:54.849Z,140.60
2022-11-22T19:17:22.957Z,143.80
2022-11-22T19:20:00.177Z,72.50
2022-11-22T19:22:28.150Z,66.60
2022-11-22T19:24:55.952Z,64.80
2022-11-22T19:27:24.952Z,74.30
2022-11-22T19:29:52.921Z,61.60
2022-11-22T19:32:21.363Z,73.80
2022-11-22T19:34:56.193Z,65.00
2022-11-22T19:37:24.155Z,59.20
2022-11-22T19:39:52.998Z,75.60
2022-11-22T19:42:20.947Z,79.40
2022-11-22T19:44:49.984Z,71.60
2022-11-22T19:47:18.200Z,76.00
2022-11-22T19:49:46.049Z,72.10
2022-11-22T19:52:13.831Z,83.80
2022-11-22T19:54:44.156Z,107.80
2022-11-22T19:57:12.166Z,82.50
2022-11-22T19:59:40.091Z,67.50
2022-11-22T20:02:08.623Z,77.60
2022-11-22T20:04:36.442Z,92.40
2022-11-22T20:07:04.794Z,84.70
2022-11-22T20:09:32.956Z,114.10
2022-11-22T20:12:01.276Z,68.80
2022-11-22T20:14:29.304Z,58.70
2022-11-22T20:16:57.395Z,54.70
2022-11-22T20:19:34.384Z,44.20
2022-11-22T20:22:02.490Z,44.80
2022-11-22T20:24:31.049Z,42.70
2022-11-22T20:26:58.915Z,50.30
2022-11-22T20:29:26.835Z,45.40
2022-11-22T20:31:56.261Z,48.70
2022-11-22T20:34:24.523Z,52.40
2022-11-22T20:36:54.019Z,49.90
2022-11-22T20:39:21.866Z,44.60
2022-11-22T20:42:05.869Z,48.20
2022-11-22T20:44:37.433Z,57.60
2022-11-22T20:47:05.441Z,49.40
2022-11-22T20:49:33.768Z,41.30
2022-11-22T20:52:02.544Z,56.70
2022-11-22T20:54:30.664Z,48.70
2022-11-22T20:56:58.822Z,49.00
2022-11-22T20:59:26.679Z,52.50
2022-11-22T21:02:02.979Z,49.90
2022-11-22T21:04:33.284Z,46.70
2022-11-22T21:07:01.352Z,49.30
2022-11-22T21:09:29.257Z,45.50
2022-11-22T21:11:57.007Z,51.00
2022-11-22T21:14:25.248Z,40.60
2022-11-22T21:16:53.054Z,65.50
2022-11-22T21:19:20.954Z,53.50
2022-11-22T21:21:48.743Z,46.50
2022-11-22T21:24:16.517Z,43.70
2022-11-22T21:26:48.535Z,41.30
2022-11-22T21:29:16.886Z,39.40
2022-11-22T21:31:44.953Z,37.90
2022-11-22T21:34:12.888Z,39.80
2022-11-22T21:36:40.560Z,42.40
2022-11-22T21:39:08.272Z,47.20
2022-11-22T21:41:40.841Z,44.70
2022-11-22T21:44:09.664Z,42.30
2022-11-22T21:46:37.837Z,46.00
2022-11-22T21:49:05.989Z,38.80
2022-11-22T21:51:34.371Z,41.50
2022-11-22T21:54:02.928Z,41.80
2022-11-22T21:56:33.022Z,40.90
2022-11-22T21:59:01.309Z,46.50
2022-11-22T22:01:29.482Z,43.80
2022-11-22T22:03:57.310Z,41.50
2022-11-22T22:06:25.684Z,39.70
2022-11-22T22:08:54.099Z,41.50
2022-11-22T22:11:23.044Z,48.90
2022-11-22T22:13:54.190Z,44.40
2022-11-22T22:16:24.195Z,45.40
2022-11-22T22:18:57.163Z,46.20
2022-11-22T22:23:54.256Z,50.10
2022-11-22T22:26:22.399Z,47.90
2022-11-22T22:28:50.200Z,47.80
2022-11-22T22:31:28.440Z,51.50
2022-11-22T22:33:58.511Z,45.20
2022-11-22T22:36:28.939Z,49.60
2022-11-22T22:39:00.392Z,48.80
2022-11-22T22:41:28.527Z,42.50
2022-11-22T22:43:58.037Z,49.60
2022-11-22T22:46:26.069Z,46.30
2022-11-22T22:48:57.562Z,44.60
2022-11-22T22:51:33.431Z,47.10
2022-11-22T22:54:02.151Z,53.20
2022-11-22T22:56:31.176Z,45.90
2022-11-22T22:59:07.966Z,53.40
2022-11-22T23:01:39.583Z,51.00
2022-11-22T23:04:07.582Z,43.90
2022-11-22T23:06:36.635Z,53.00
2022-11-22T23:09:09.852Z,49.90
2022-11-22T23:11:58.537Z,46.50
2022-11-22T23:14:28.523Z,45.30
2022-11-22T23:16:58.134Z,46.50
2022-11-22T23:19:27.182Z,48.90
2022-11-22T23:21:55.264Z,50.40
2022-11-22T23:24:23.007Z,45.40
2022-11-22T23:26:50.876Z,47.00
2022-11-22T23:29:18.725Z,50.60
2022-11-22T23:31:46.482Z,46.80
2022-11-22T23:34:14.500Z,50.60
2022-11-22T23:36:42.230Z,51.30
2022-11-22T23:39:10.040Z,48.70
2022-11-22T23:41:37.956Z,46.10
2022-11-22T23:44:05.890Z,47.20
2022-11-22T23:46:33.794Z,41.40
2022-11-22T23:49:02.322Z,47.50
2022-11-22T23:51:31.170Z,47.20
2022-11-22T23:54:00.271Z,48.80
2022-11-22T23:56:28.705Z,42.50
2022-11-22T23:59:00.274Z,41.90
